Time;durP1;ratioP1;P1;durP2;ratioP2;P2;SDS_P1;SDS_P2;PMS_P1;PMS_P2;Temp;Humidity;BMP_temperature;BMP_pressure;BME280_temperature;BME280_humidity;BME280_pressure;Samples;Min_cycle;Max_cycle;Signal;HPM_P1;HPM_P2
2022/03/10 04:47:08;;;;;;;;;;;;;;;4.82;65.33;97576.16;4239280;27;10264;-64
2022/03/10 04:49:10;;;;;;;;;;;;;;;4.88;64.94;97580.03;4228947;27;5822;-65
2022/03/10 04:51:12;;;;;;;;;;;;;;;4.88;64.86;97574.81;4230698;28;5836;-63
2022/03/10 04:53:14;;;;;;;;;;;;;;;4.93;64.70;97577.81;4228362;28;5765;-64
2022/03/10 04:55:16;;;;;;;;;;;;;;;4.95;64.50;97578.50;4230639;27;5666;-64
2022/03/10 04:57:21;;;;;;;;;;;;;;;4.99;64.27;97577.28;4231161;27;5682;-64
2022/03/10 04:59:25;;;;;;;;;;;;;;;5.00;64.13;97578.94;4231660;27;5667;-65
2022/03/10 05:01:27;;;;;;;;;;;;;;;5.02;63.72;97587.47;4235317;27;5662;-66
2022/03/10 05:03:30;;;;;;;;;;;;;;;5.02;63.90;97577.00;4239229;27;5675;-63
2022/03/10 05:05:32;;;;;;;;;;;;;;;5.03;63.60;97578.63;4232640;27;6593;-64
2022/03/10 05:07:34;;;;;;;;;;;;;;;5.06;63.50;97573.13;4230766;28;6476;-65
2022/03/10 05:09:36;;;;;;;;;;;;;;;5.06;63.33;97573.13;4230785;28;5675;-64
2022/03/10 05:11:38;;;;;;;;;;;;;;;5.02;63.35;97574.38;4230857;28;5691;-63
2022/03/10 05:13:40;;;;;;;;;;;;;;;5.11;62.42;97573.53;4230851;28;5695;-63
2022/03/10 05:15:41;;;;;;;;;;;;;;;5.11;62.09;97575.34;4230649;28;6080;-63
2022/03/10 05:17:43;;;;;;;;;;;;;;;5.08;61.84;97575.59;4229559;28;5709;-64
2022/03/10 05:19:45;;;;;;;;;;;;;;;5.06;61.77;97583.59;4230769;28;5687;-63
2022/03/10 05:21:46;;;;;;;;;;;;;;;5.06;61.32;97573.13;4230303;28;5770;-62
2022/03/10 05:23:52;;;;;;;;;;;;;;;5.06;61.00;97570.50;4230613;28;5676;-63
2022/03/10 05:25:53;;;;;;;;;;;;;;;5.02;60.85;97574.38;4230788;28;5755;-62
2022/03/10 05:27:55;;;;;;;;;;;;;;;5.02;60.87;97574.38;4230641;28;5671;-62
2022/03/10 05:29:56;;;;;;;;;;;;;;;5.01;60.57;97575.34;4230680;28;5137;-62
2022/03/10 05:31:58;;;;;;;;;;;;;;;5.03;60.56;97578.63;4230640;28;5665;-64
2022/03/10 05:34:00;;;;;;;;;;;;;;;5.04;60.45;97568.97;4230338;28;5679;-64
2022/03/10 05:36:02;;;;;;;;;;;;;;;5.07;60.32;97574.75;4230096;28;6158;-65
2022/03/10 05:38:04;;;;;;;;;;;;;;;5.10;60.33;97584.16;4230087;28;5101;-64
2022/03/10 05:40:10;;;;;;;;;;;;;;;5.10;60.04;97578.94;4230384;28;7719;-63
2022/03/10 05:42:15;;;;;;;;;;;;;;;4.98;60.51;97578.22;4230646;28;5708;-63
2022/03/10 05:44:17;;;;;;;;;;;;;;;5.03;60.27;97575.19;4231629;27;5658;-65
2022/03/10 05:46:18;;;;;;;;;;;;;;;5.07;60.55;97584.41;4231714;27;5676;-64
2022/03/10 05:48:25;;;;;;;;;;;;;;;5.06;60.17;97580.97;4218206;28;5678;-63
2022/03/10 05:50:27;;;;;;;;;;;;;;;4.99;60.27;97577.28;4220974;28;5810;-64
2022/03/10 05:52:29;;;;;;;;;;;;;;;4.96;60.15;97569.66;4216896;28;5676;-64
2022/03/10 05:54:30;;;;;;;;;;;;;;;4.89;60.34;97572.03;4217160;28;6006;-63
2022/03/10 05:56:33;;;;;;;;;;;;;;;4.97;60.16;97568.69;4212042;28;5766;-72
2022/03/10 05:58:34;;;;;;;;;;;;;;;4.97;59.94;97579.19;4218336;28;5738;-63
2022/03/10 06:00:36;;;;;;;;;;;;;;;4.97;59.71;97573.94;4215492;28;5817;-68
2022/03/10 06:02:38;;;;;;;;;;;;;;;4.95;59.80;97575.88;4213499;28;5675;-68
2022/03/10 06:04:40;;;;;;;;;;;;;;;4.99;59.91;97582.50;4225124;28;5679;-68
2022/03/10 06:06:45;;;;;;;;;;;;;;;4.98;59.77;97583.47;4217909;28;5774;-68
2022/03/10 06:08:46;;;;;;;;;;;;;;;5.01;59.56;97585.81;4218241;28;5679;-67
2022/03/10 06:10:48;;;;;;;;;;;;;;;5.00;59.58;97592.03;4222865;28;5709;-68
2022/03/10 06:12:50;;;;;;;;;;;;;;;5.01;59.88;97591.06;4209851;28;5791;-68
2022/03/10 06:15:03;;;;;;;;;;;;;;;5.04;59.83;97590.78;4218434;28;5765;-68
2022/03/10 06:17:05;;;;;;;;;;;;;;;5.05;59.71;97584.56;4218504;28;5663;-68
2022/03/10 06:19:08;;;;;;;;;;;;;;;5.07;59.60;97590.50;4217834;28;5700;-68
2022/03/10 06:21:10;;;;;;;;;;;;;;;5.06;59.80;97591.47;4218204;28;5664;-68
2022/03/10 06:23:12;;;;;;;;;;;;;;;5.06;59.91;97593.25;4218064;28;5718;-68
2022/03/10 06:25:14;;;;;;;;;;;;;;;5.08;59.89;97597.38;4220981;28;5873;-68
2022/03/10 06:27:17;;;;;;;;;;;;;;;5.10;59.83;97600.72;4218666;28;5695;-68
2022/03/10 06:29:19;;;;;;;;;;;;;;;5.04;60.01;97601.25;4217585;28;5667;-68
2022/03/10 06:31:23;;;;;;;;;;;;;;;5.01;60.26;97604.16;4216653;28;5671;-69
2022/03/10 06:33:25;;;;;;;;;;;;;;;5.03;60.38;97598.78;4217977;28;5732;-70
2022/03/10 06:35:28;;;;;;;;;;;;;;;5.00;60.48;97601.69;4216892;28;5679;-68
2022/03/10 06:37:30;;;;;;;;;;;;;;;5.00;60.68;97596.44;4214857;28;5667;-68
2022/03/10 06:39:32;;;;;;;;;;;;;;;5.03;60.74;97589.13;4217473;28;5878;-69
2022/03/10 06:41:34;;;;;;;;;;;;;;;5.09;60.78;97593.78;4215273;28;6532;-68
2022/03/10 06:43:36;;;;;;;;;;;;;;;5.08;60.77;97589.53;4213248;28;5763;-68
2022/03/10 06:45:38;;;;;;;;;;;;;;;5.12;60.76;97583.06;4214487;28;5668;-69
2022/03/10 06:47:40;;;;;;;;;;;;;;;5.20;60.97;97588.41;4216245;28;5655;-68
2022/03/10 06:49:42;;;;;;;;;;;;;;;5.21;60.82;97584.84;4216773;28;6443;-69
2022/03/10 06:51:44;;;;;;;;;;;;;;;5.26;61.02;97584.41;4218139;28;5683;-68
2022/03/10 06:53:46;;;;;;;;;;;;;;;5.27;61.15;97578.19;4218085;28;5671;-68
2022/03/10 06:55:51;;;;;;;;;;;;;;;5.24;61.68;97581.94;4217932;28;5656;-68
2022/03/10 06:57:53;;;;;;;;;;;;;;;5.29;62.41;97578.06;4217629;28;5746;-68
2022/03/10 06:59:55;;;;;;;;;;;;;;;5.02;64.74;97584.84;4217179;28;5959;-68
2022/03/10 07:01:57;;;;;;;;;;;;;;;5.05;63.68;97587.19;4217534;28;5675;-69
2022/03/10 07:03:59;;;;;;;;;;;;;;;5.20;64.74;97584.97;4217100;28;5948;-68
2022/03/10 07:06:02;;;;;;;;;;;;;;;5.21;65.08;97595.31;4217468;28;5794;-68
2022/03/10 07:08:04;;;;;;;;;;;;;;;5.14;65.47;97596.84;4216905;28;5695;-68
2022/03/10 07:10:07;;;;;;;;;;;;;;;5.23;65.36;97590.75;4217467;28;5678;-68
2022/03/10 07:12:11;;;;;;;;;;;;;;;5.28;65.07;97586.88;4217994;28;5671;-68
2022/03/10 07:14:13;;;;;;;;;;;;;;;5.35;64.87;97593.22;4217514;28;5750;-68
2022/03/10 07:16:15;;;;;;;;;;;;;;;5.35;65.39;97593.22;4217576;28;5783;-70
2022/03/10 07:18:16;;;;;;;;;;;;;;;5.32;65.51;97590.88;4217621;28;5742;-69
2022/03/10 07:20:18;;;;;;;;;;;;;;;5.30;66.03;97584.94;4217952;28;5678;-69
2022/03/10 07:22:20;;;;;;;;;;;;;;;5.36;66.69;97590.47;4217368;28;5659;-69
2022/03/10 07:24:22;;;;;;;;;;;;;;;5.35;66.80;97591.44;4217689;28;5765;-69
2022/03/10 07:26:30;;;;;;;;;;;;;;;5.45;66.44;97588.78;4217506;28;5673;-69
2022/03/10 07:28:31;;;;;;;;;;;;;;;5.43;67.01;97581.03;4217361;28;5660;-69
2022/03/10 07:30:33;;;;;;;;;;;;;;;5.48;66.71;97588.50;4217475;28;5706;-69
2022/03/10 07:32:34;;;;;;;;;;;;;;;5.25;68.13;97593.25;4217757;28;5787;-69
2022/03/10 07:34:36;;;;;;;;;;;;;;;5.30;68.18;97595.44;4217689;28;5813;-68
2022/03/10 07:36:40;;;;;;;;;;;;;;;5.45;66.73;97596.66;4216877;28;5755;-69
2022/03/10 07:38:42;;;;;;;;;;;;;;;5.49;66.45;97590.97;4217533;28;5757;-69
2022/03/10 07:40:44;;;;;;;;;;;;;;;5.50;67.00;97594.44;4217336;28;5755;-69
2022/03/10 07:42:46;;;;;;;;;;;;;;;5.54;66.35;97587.91;4217455;28;5832;-69
2022/03/10 07:44:48;;;;;;;;;;;;;;;5.49;67.48;97587.53;4217453;28;5679;-69
2022/03/10 07:46:49;;;;;;;;;;;;;;;5.49;66.82;97588.38;4216612;28;5791;-69
2022/03/10 07:48:51;;;;;;;;;;;;;;;5.65;66.59;97592.16;4217107;28;5663;-69
2022/03/10 07:50:53;;;;;;;;;;;;;;;5.62;66.53;97584.59;4217065;28;5675;-69
2022/03/10 07:52:55;;;;;;;;;;;;;;;5.69;65.85;97581.28;4216975;28;5739;-69
2022/03/10 07:54:57;;;;;;;;;;;;;;;5.85;65.37;97580.66;4232132;28;5673;-69
2022/03/10 07:56:59;;;;;;;;;;;;;;;5.87;65.05;97577.88;4234248;28;5653;-68
2022/03/10 07:59:02;;;;;;;;;;;;;;;5.87;64.71;97580.50;4223323;28;5824;-69
2022/03/10 08:01:04;;;;;;;;;;;;;;;5.90;64.77;97583.72;4218750;28;5823;-68
2022/03/10 08:03:06;;;;;;;;;;;;;;;5.88;64.70;97579.53;4234111;28;5107;-69
2022/03/10 08:05:09;;;;;;;;;;;;;;;5.82;64.96;97589.66;4220709;28;7733;-69
2022/03/10 08:07:11;;;;;;;;;;;;;;;5.73;66.16;97589.66;4216782;28;5793;-69
2022/03/10 08:09:13;;;;;;;;;;;;;;;5.85;65.11;97580.66;4217025;28;5761;-69
2022/03/10 08:11:14;;;;;;;;;;;;;;;5.88;65.89;97579.53;4216704;28;5672;-69
2022/03/10 08:13:17;;;;;;;;;;;;;;;5.92;66.36;97580.94;4217076;28;5687;-69
2022/03/10 08:15:21;;;;;;;;;;;;;;;5.88;66.55;97574.28;4216932;28;5663;-68
2022/03/10 08:17:25;;;;;;;;;;;;;;;5.70;66.89;97585.53;4216789;28;5686;-69
2022/03/10 08:19:27;;;;;;;;;;;;;;;5.88;66.76;97574.28;4217048;28;5818;-69
2022/03/10 08:21:29;;;;;;;;;;;;;;;5.53;68.17;97570.53;4216563;28;5659;-69
2022/03/10 08:23:30;;;;;;;;;;;;;;;5.80;66.88;97575.03;4217035;28;5671;-69
2022/03/10 08:25:33;;;;;;;;;;;;;;;5.92;66.36;97575.69;4216595;28;5774;-68
2022/03/10 08:27:34;;;;;;;;;;;;;;;5.94;67.38;97573.75;4217082;28;5675;-69
2022/03/10 08:29:36;;;;;;;;;;;;;;;6.07;66.32;97575.06;4216808;28;5739;-68
2022/03/10 08:31:38;;;;;;;;;;;;;;;6.08;67.05;97575.88;4217463;28;5682;-69
2022/03/10 08:33:40;;;;;;;;;;;;;;;6.00;67.02;97581.03;4219420;28;5776;-68
2022/03/10 08:35:41;;;;;;;;;;;;;;;5.99;67.12;97579.38;4219889;28;5694;-68
2022/03/10 08:37:43;;;;;;;;;;;;;;;6.02;66.80;97579.94;4220492;28;5679;-68
2022/03/10 08:39:45;;;;;;;;;;;;;;;6.10;66.64;97580.00;4220357;28;5671;-68
2022/03/10 08:41:49;;;;;;;;;;;;;;;6.04;66.89;97577.16;4219252;28;5685;-67
2022/03/10 08:43:51;;;;;;;;;;;;;;;5.62;68.47;97577.56;4216818;28;5667;-68
2022/03/10 08:45:53;;;;;;;;;;;;;;;5.83;67.62;97572.09;4216507;28;5750;-67
2022/03/10 08:47:55;;;;;;;;;;;;;;;6.10;67.03;97569.50;4216447;28;5833;-68
2022/03/10 08:49:58;;;;;;;;;;;;;;;6.20;66.28;97564.22;4216783;28;5675;-68
2022/03/10 08:52:00;;;;;;;;;;;;;;;6.23;65.84;97563.06;4216219;28;5667;-68
2022/03/10 08:54:02;;;;;;;;;;;;;;;6.29;65.39;97563.34;4216796;28;5793;-69
2022/03/10 08:56:06;;;;;;;;;;;;;;;6.18;65.53;97555.66;4216770;28;5675;-68
2022/03/10 08:58:08;;;;;;;;;;;;;;;6.27;65.04;97557.41;4217059;28;5687;-68
2022/03/10 09:00:11;;;;;;;;;;;;;;;6.37;64.51;97550.28;4216593;28;5674;-68
2022/03/10 09:02:13;;;;;;;;;;;;;;;6.37;64.45;97552.94;4216714;28;5680;-68
2022/03/10 09:04:16;;;;;;;;;;;;;;;6.51;63.93;97548.94;4216409;28;5746;-69
2022/03/10 09:06:18;;;;;;;;;;;;;;;6.53;63.71;97554.06;4216072;28;5656;-68
2022/03/10 09:08:20;;;;;;;;;;;;;;;6.54;63.79;97545.19;4216339;28;5695;-67
2022/03/10 09:10:22;;;;;;;;;;;;;;;6.48;64.43;97548.44;4216254;28;5778;-68
2022/03/10 09:12:24;;;;;;;;;;;;;;;6.61;63.80;97546.25;4216679;28;5667;-68
2022/03/10 09:14:26;;;;;;;;;;;;;;;6.63;63.60;97550.38;4216494;28;5750;-68
2022/03/10 09:16:27;;;;;;;;;;;;;;;6.67;63.15;97545.66;4216350;28;5670;-68
2022/03/10 09:18:29;;;;;;;;;;;;;;;6.68;63.05;97540.25;4216506;28;5691;-68
2022/03/10 09:20:31;;;;;;;;;;;;;;;6.76;62.39;97542.13;4216596;28;5675;-67
2022/03/10 09:22:33;;;;;;;;;;;;;;;6.69;62.78;97538.47;4217696;28;5738;-67
2022/03/10 09:24:35;;;;;;;;;;;;;;;6.76;62.52;97543.91;4219833;28;6459;-67
2022/03/10 09:26:39;;;;;;;;;;;;;;;6.68;62.62;97542.91;4219771;28;5754;-68
2022/03/10 09:28:43;;;;;;;;;;;;;;;6.50;61.72;97538.59;4219454;28;5679;-69
2022/03/10 09:30:48;;;;;;;;;;;;;;;6.66;62.23;97536.13;4219644;28;5662;-67
2022/03/10 09:32:50;;;;;;;;;;;;;;;6.81;62.14;97533.81;4219366;28;5679;-68
2022/03/10 09:34:52;;;;;;;;;;;;;;;6.86;61.35;97534.97;4219011;28;6495;-67
2022/03/10 09:36:54;;;;;;;;;;;;;;;7.02;61.93;97523.75;4219200;28;5667;-68
2022/03/10 09:38:56;;;;;;;;;;;;;;;6.94;60.93;97527.16;4219420;28;5679;-67
2022/03/10 09:40:57;;;;;;;;;;;;;;;7.07;60.17;97536.47;4219695;28;5781;-68
2022/03/10 09:42:59;;;;;;;;;;;;;;;6.94;60.18;97528.97;4219356;28;5651;-68
2022/03/10 09:45:04;;;;;;;;;;;;;;;6.98;60.42;97523.25;4219032;28;5663;-68
2022/03/10 09:47:06;;;;;;;;;;;;;;;7.06;59.51;97521.66;4218534;28;5656;-68
2022/03/10 09:49:11;;;;;;;;;;;;;;;7.08;58.69;97524.97;4219190;28;5678;-69
2022/03/10 09:51:13;;;;;;;;;;;;;;;7.06;59.02;97524.31;4217931;28;5723;-69
2022/03/10 09:53:15;;;;;;;;;;;;;;;7.10;59.07;97528.25;4218932;28;5695;-69
2022/03/10 09:55:19;;;;;;;;;;;;;;;7.20;57.79;97526.38;4219284;28;5682;-69
2022/03/10 09:57:22;;;;;;;;;;;;;;;7.06;58.93;97519.88;4219176;28;5676;-69
2022/03/10 09:59:28;;;;;;;;;;;;;;;7.08;58.55;97512.66;4218923;28;5675;-68
2022/03/10 10:01:29;;;;;;;;;;;;;;;7.08;57.33;97517.06;4221117;28;5667;-69
2022/03/10 10:03:33;;;;;;;;;;;;;;;7.13;57.35;97520.06;4221461;28;5683;-69
2022/03/10 10:05:40;;;;;;;;;;;;;;;7.21;57.80;97520.13;4209472;28;5688;-68
2022/03/10 10:07:42;;;;;;;;;;;;;;;7.19;57.12;97514.19;4204077;28;6557;-68
2022/03/10 10:09:46;;;;;;;;;;;;;;;7.16;57.31;97514.50;4204412;28;5690;-67
2022/03/10 10:11:50;;;;;;;;;;;;;;;7.22;57.64;97513.88;4204520;28;5724;-69
2022/03/10 10:13:51;;;;;;;;;;;;;;;7.12;55.78;97521.03;4204303;28;5689;-67
2022/03/10 10:15:56;;;;;;;;;;;;;;;7.23;55.58;97515.53;4204399;28;5689;-67
2022/03/10 10:17:59;;;;;;;;;;;;;;;7.25;54.14;97518.84;4204229;28;5712;-68
2022/03/10 10:20:11;;;;;;;;;;;;;;;7.29;53.35;97512.28;4204251;28;5692;-67
2022/03/10 10:22:16;;;;;;;;;;;;;;;7.11;54.05;97508.88;4203653;28;5696;-68
2022/03/10 10:24:18;;;;;;;;;;;;;;;7.22;55.39;97513.88;4203922;28;5788;-68
2022/03/10 10:26:26;;;;;;;;;;;;;;;7.44;54.85;97512.53;4203771;28;5998;-67
2022/03/10 10:28:31;;;;;;;;;;;;;;;7.26;54.26;97510.81;4204147;28;5676;-68
2022/03/10 10:30:32;;;;;;;;;;;;;;;7.34;54.60;97506.56;4203751;28;5795;-69
2022/03/10 10:32:44;;;;;;;;;;;;;;;7.48;55.46;97506.84;4203640;28;5697;-68
2022/03/10 10:35:00;;;;;;;;;;;;;;;7.52;55.87;97504.69;4203813;28;5684;-68
2022/03/10 10:37:04;;;;;;;;;;;;;;;7.52;55.80;97495.00;4203211;28;5698;-68
2022/03/10 10:39:12;;;;;;;;;;;;;;;7.59;55.45;97496.03;4203898;28;5693;-68
2022/03/10 10:41:34;;;;;;;;;;;;;;;7.56;53.92;97493.69;4203678;28;5701;-68
2022/03/10 10:43:46;;;;;;;;;;;;;;;7.70;53.22;97489.66;4203755;28;5770;-68
2022/03/10 10:45:55;;;;;;;;;;;;;;;7.74;53.02;97492.81;4203661;28;5701;-68
2022/03/10 10:48:15;;;;;;;;;;;;;;;7.53;53.07;97494.03;4215564;28;5683;-68
2022/03/10 10:50:21;;;;;;;;;;;;;;;7.67;52.67;97489.13;4220415;28;5743;-69
2022/03/10 10:52:23;;;;;;;;;;;;;;;7.80;52.22;97492.16;4219684;28;5798;-69
2022/03/10 10:54:27;;;;;;;;;;;;;;;7.87;52.00;97493.19;4220344;28;5689;-68
2022/03/10 10:56:30;;;;;;;;;;;;;;;7.92;52.51;97492.69;4220222;28;5663;-68
2022/03/10 10:58:32;;;;;;;;;;;;;;;7.89;51.94;97486.75;4219791;28;5745;-68
2022/03/10 11:00:46;;;;;;;;;;;;;;;8.00;52.01;97482.19;4219943;28;5750;-69
2022/03/10 11:02:50;;;;;;;;;;;;;;;7.97;51.05;97479.88;4220846;28;5683;-68
2022/03/10 11:04:53;;;;;;;;;;;;;;;8.08;51.61;97490.94;4220205;28;5746;-68
2022/03/10 11:06:55;;;;;;;;;;;;;;;8.17;51.23;97482.09;4220781;28;5672;-69
2022/03/10 11:08:57;;;;;;;;;;;;;;;8.15;49.04;97480.56;4220524;28;5747;-68
2022/03/10 11:10:59;;;;;;;;;;;;;;;8.17;49.37;97482.09;4220202;28;5754;-68
2022/03/10 11:13:03;;;;;;;;;;;;;;;8.24;50.32;97473.53;4219607;28;5929;-68
2022/03/10 11:15:07;;;;;;;;;;;;;;;8.25;49.18;97465.47;4220052;28;5688;-68
2022/03/10 11:17:09;;;;;;;;;;;;;;;8.09;48.88;97470.69;4220531;28;5683;-68
2022/03/10 11:19:13;;;;;;;;;;;;;;;8.05;48.17;97459.69;4219986;28;5690;-68
2022/03/10 11:21:23;;;;;;;;;;;;;;;7.96;47.42;97457.19;4221392;28;6554;-68
2022/03/10 11:23:28;;;;;;;;;;;;;;;7.96;47.64;97457.19;4220138;28;6405;-68
2022/03/10 11:25:48;;;;;;;;;;;;;;;8.06;46.50;97453.41;4220724;28;5675;-68
2022/03/10 11:28:16;;;;;;;;;;;;;;;8.13;47.33;97443.88;4220972;28;5698;-68
2022/03/10 11:30:25;;;;;;;;;;;;;;;8.00;50.43;97447.97;4204902;28;6464;-68
2022/03/10 11:32:28;;;;;;;;;;;;;;;8.14;48.34;97442.88;4220327;28;5731;-68
2022/03/10 11:34:50;;;;;;;;;;;;;;;8.20;49.25;97441.44;4218711;28;5612;-68
2022/03/10 11:36:51;;;;;;;;;;;;;;;8.27;48.81;97433.69;4219572;28;5834;-68
2022/03/10 11:39:10;;;;;;;;;;;;;;;8.22;49.18;97433.34;4220055;28;5177;-68
2022/03/10 11:41:12;;;;;;;;;;;;;;;8.06;49.12;97429.72;4219844;28;5843;-67
2022/03/10 11:43:35;;;;;;;;;;;;;;;8.27;48.34;97436.31;4219876;28;5683;-69
2022/03/10 11:45:37;;;;;;;;;;;;;;;8.32;48.00;97424.31;4218968;28;5679;-68
2022/03/10 11:47:39;;;;;;;;;;;;;;;8.34;48.77;97426.78;4219892;28;5668;-68
2022/03/10 11:49:41;;;;;;;;;;;;;;;8.24;48.57;97426.13;4219604;28;5743;-68
2022/03/10 11:51:54;;;;;;;;;;;;;;;8.30;47.90;97423.66;4219083;28;5821;-68
2022/03/10 11:54:03;;;;;;;;;;;;;;;8.33;48.38;97419.88;4219645;28;5660;-68
2022/03/10 11:56:05;;;;;;;;;;;;;;;8.43;47.75;97421.38;4219711;28;5663;-67
2022/03/10 11:58:10;;;;;;;;;;;;;;;8.35;46.61;97417.91;4219243;28;5687;-68
2022/03/10 12:00:15;;;;;;;;;;;;;;;8.39;48.26;97416.63;4219700;28;5802;-68
2022/03/10 12:02:32;;;;;;;;;;;;;;;8.35;48.31;97408.22;4218992;28;5683;-68
2022/03/10 12:04:39;;;;;;;;;;;;;;;8.44;46.71;97409.88;4219313;28;5705;-68
2022/03/10 12:06:48;;;;;;;;;;;;;;;8.48;45.39;97407.72;4219459;28;5670;-67
2022/03/10 12:09:27;;;;;;;;;;;;;;;8.48;46.04;97405.06;4219938;28;6444;-68
2022/03/10 12:11:47;;;;;;;;;;;;;;;8.48;45.61;97404.25;4206473;28;5715;-68
2022/03/10 12:13:51;;;;;;;;;;;;;;;8.63;45.84;97402.63;4219664;28;6336;-68
2022/03/10 12:15:54;;;;;;;;;;;;;;;8.73;44.97;97404.09;4219676;28;5690;-68
2022/03/10 12:17:56;;;;;;;;;;;;;;;8.71;44.20;97398.13;4220060;28;5675;-68
2022/03/10 12:20:24;;;;;;;;;;;;;;;8.55;42.85;97382.34;4220701;28;5738;-68
2022/03/10 12:22:29;;;;;;;;;;;;;;;8.58;43.44;97389.94;4220464;28;5686;-68
2022/03/10 12:24:35;;;;;;;;;;;;;;;8.75;43.99;97382.84;4219038;28;5673;-68
2022/03/10 12:26:39;;;;;;;;;;;;;;;8.87;44.20;97380.66;4219820;28;5780;-68
2022/03/10 12:28:42;;;;;;;;;;;;;;;8.86;43.92;97381.66;4219152;28;5671;-68
2022/03/10 12:30:44;;;;;;;;;;;;;;;8.76;44.07;97379.22;4219375;28;5675;-68
2022/03/10 12:32:53;;;;;;;;;;;;;;;8.83;44.08;97371.44;4219608;28;5671;-68
2022/03/10 12:34:59;;;;;;;;;;;;;;;8.86;43.88;97373.75;4218711;28;5675;-68
2022/03/10 12:37:00;;;;;;;;;;;;;;;8.87;43.50;97370.94;4218621;28;5683;-68
2022/03/10 12:39:16;;;;;;;;;;;;;;;9.00;44.92;97373.06;4218766;28;5851;-69
2022/03/10 12:41:18;;;;;;;;;;;;;;;9.06;45.66;97364.47;4217377;28;5767;-68
2022/03/10 12:43:28;;;;;;;;;;;;;;;9.02;46.17;97368.44;4215165;28;5693;-68
2022/03/10 12:45:31;;;;;;;;;;;;;;;9.05;45.76;97368.09;4218660;28;5659;-68
2022/03/10 12:47:33;;;;;;;;;;;;;;;8.92;44.79;97365.16;4217810;28;5659;-68
2022/03/10 12:49:37;;;;;;;;;;;;;;;8.87;44.47;97359.59;4218596;28;5675;-68
2022/03/10 12:51:40;;;;;;;;;;;;;;;8.85;44.34;97351.03;4213062;28;6366;-68
2022/03/10 12:53:41;;;;;;;;;;;;;;;8.86;44.73;97342.94;4218024;28;5695;-68
2022/03/10 12:55:54;;;;;;;;;;;;;;;8.97;44.26;97344.41;4216094;28;5679;-67
2022/03/10 12:57:59;;;;;;;;;;;;;;;8.98;45.18;97340.75;4219158;28;5699;-68
2022/03/10 13:00:01;;;;;;;;;;;;;;;8.97;45.94;97336.47;4218028;28;5671;-68
2022/03/10 13:02:12;;;;;;;;;;;;;;;9.11;45.99;97330.50;4221094;28;5682;-68
2022/03/10 13:04:15;;;;;;;;;;;;;;;9.28;46.29;97332.06;4220727;28;5655;-68
2022/03/10 13:06:27;;;;;;;;;;;;;;;9.39;46.08;97327.41;4220553;28;5675;-69
2022/03/10 13:08:30;;;;;;;;;;;;;;;9.44;44.08;97325.06;4221554;28;5831;-68
2022/03/10 13:10:31;;;;;;;;;;;;;;;9.44;43.34;97317.97;4221703;28;5707;-68
2022/03/10 13:12:39;;;;;;;;;;;;;;;9.51;43.89;97320.72;4221818;28;6356;-68
2022/03/10 13:14:40;;;;;;;;;;;;;;;9.51;43.76;97312.81;4221916;28;5687;-69
2022/03/10 13:16:49;;;;;;;;;;;;;;;9.52;42.49;97311.84;4221168;28;5770;-68
2022/03/10 13:18:51;;;;;;;;;;;;;;;9.27;42.74;97308.47;4221351;28;5737;-68
2022/03/10 13:20:57;;;;;;;;;;;;;;;9.19;44.00;97312.00;4221302;28;5947;-68
2022/03/10 13:23:04;;;;;;;;;;;;;;;9.44;43.93;97309.25;4220916;28;5794;-68
2022/03/10 13:25:06;;;;;;;;;;;;;;;9.51;44.21;97305.75;4221051;28;5678;-68
2022/03/10 13:27:11;;;;;;;;;;;;;;;9.61;43.71;97300.22;4222342;28;5744;-69
2022/03/10 13:29:16;;;;;;;;;;;;;;;9.59;42.48;97304.84;4219984;28;5695;-69
2022/03/10 13:31:28;;;;;;;;;;;;;;;9.48;41.66;97302.63;4221360;28;5679;-69
2022/03/10 13:33:30;;;;;;;;;;;;;;;9.47;42.56;97301.78;4220950;28;5863;-68
2022/03/10 13:35:32;;;;;;;;;;;;;;;9.55;43.27;97300.94;4221290;28;5766;-69
2022/03/10 13:37:34;;;;;;;;;;;;;;;9.55;41.99;97290.38;4219591;28;5684;-69
2022/03/10 13:39:36;;;;;;;;;;;;;;;9.57;42.36;97294.47;4219563;28;5679;-69
2022/03/10 13:41:38;;;;;;;;;;;;;;;9.61;42.68;97289.66;4218142;28;5727;-69
2022/03/10 13:43:40;;;;;;;;;;;;;;;9.57;43.31;97291.84;4217926;28;5811;-69
2022/03/10 13:45:42;;;;;;;;;;;;;;;9.58;43.49;97287.38;4217850;28;5742;-70
2022/03/10 13:47:47;;;;;;;;;;;;;;;9.52;44.68;97286.28;4213413;28;6366;-69
2022/03/10 13:49:50;;;;;;;;;;;;;;;9.63;42.88;97285.06;4217359;28;5801;-70
2022/03/10 13:51:52;;;;;;;;;;;;;;;9.70;43.40;97288.63;4217516;28;6483;-69
2022/03/10 13:54:00;;;;;;;;;;;;;;;9.62;43.76;97283.38;4218021;28;5830;-68
2022/03/10 13:56:02;;;;;;;;;;;;;;;9.65;44.53;97283.06;4217651;28;5738;-70
2022/03/10 13:58:05;;;;;;;;;;;;;;;9.65;44.48;97275.13;4217606;28;5667;-69
2022/03/10 14:00:08;;;;;;;;;;;;;;;9.53;44.96;97273.91;4217941;28;5830;-69
2022/03/10 14:02:26;;;;;;;;;;;;;;;9.59;46.30;97281.09;4217940;28;5791;-70
2022/03/10 14:04:35;;;;;;;;;;;;;;;9.72;46.50;97278.69;4217785;28;5707;-69
2022/03/10 14:06:44;;;;;;;;;;;;;;;9.68;46.83;97272.13;4217878;28;5675;-69
2022/03/10 14:08:52;;;;;;;;;;;;;;;9.75;46.84;97270.44;4220260;28;5695;-70
2022/03/10 14:10:58;;;;;;;;;;;;;;;9.71;47.23;97263.03;4220242;28;5920;-69
2022/03/10 14:13:02;;;;;;;;;;;;;;;9.69;46.82;97260.56;4220494;28;5780;-69
2022/03/10 14:15:04;;;;;;;;;;;;;;;9.78;47.05;97264.81;4220462;28;5662;-68
2022/03/10 14:17:06;;;;;;;;;;;;;;;9.88;46.10;97262.75;4220539;28;5679;-68
2022/03/10 14:19:20;;;;;;;;;;;;;;;9.89;46.47;97250.38;4220166;28;5747;-70
2022/03/10 14:21:22;;;;;;;;;;;;;;;9.86;46.00;97256.81;4220547;28;5878;-68
2022/03/10 14:23:27;;;;;;;;;;;;;;;9.85;46.26;97259.63;4220540;28;5680;-69
2022/03/10 14:25:48;;;;;;;;;;;;;;;9.83;46.12;97246.59;4220406;28;5744;-70
2022/03/10 14:27:50;;;;;;;;;;;;;;;9.83;46.45;97243.97;4220360;28;5703;-69
2022/03/10 14:29:57;;;;;;;;;;;;;;;9.85;45.97;97249.06;4220419;28;5754;-69
2022/03/10 14:31:58;;;;;;;;;;;;;;;9.79;46.35;97242.69;4220319;28;5089;-69
2022/03/10 14:34:00;;;;;;;;;;;;;;;9.78;46.19;97243.69;4220471;28;5783;-69
2022/03/10 14:36:05;;;;;;;;;;;;;;;9.88;46.83;97238.16;4220133;28;5783;-69
2022/03/10 14:38:07;;;;;;;;;;;;;;;9.94;46.35;97234.78;4219977;28;5656;-69
2022/03/10 14:40:09;;;;;;;;;;;;;;;9.95;46.48;97232.97;4219487;28;5776;-69
2022/03/10 14:42:11;;;;;;;;;;;;;;;9.98;46.03;97237.91;4220056;28;5791;-68
2022/03/10 14:44:13;;;;;;;;;;;;;;;9.93;45.83;97228.69;4215974;28;5743;-69
2022/03/10 14:46:15;;;;;;;;;;;;;;;9.90;45.79;97233.50;4219590;28;5676;-69
2022/03/10 14:48:18;;;;;;;;;;;;;;;9.95;46.21;97223.22;4221263;28;5667;-69
2022/03/10 14:50:20;;;;;;;;;;;;;;;9.96;46.47;97221.41;4220760;28;5754;-68
2022/03/10 14:52:22;;;;;;;;;;;;;;;10.06;46.07;97221.97;4218372;28;6154;-70
2022/03/10 14:54:24;;;;;;;;;;;;;;;10.11;45.66;97228.38;4217101;28;5922;-70
2022/03/10 14:56:26;;;;;;;;;;;;;;;10.14;45.30;97219.28;4217080;28;5764;-69
2022/03/10 14:58:28;;;;;;;;;;;;;;;10.08;45.57;97218.19;4217232;28;5675;-69
2022/03/10 15:00:30;;;;;;;;;;;;;;;10.02;44.70;97212.78;4217019;28;5704;-68
2022/03/10 15:02:32;;;;;;;;;;;;;;;10.04;45.34;97210.78;4216755;28;5755;-69
2022/03/10 15:04:34;;;;;;;;;;;;;;;10.07;45.14;97207.75;4216532;28;5758;-69
2022/03/10 15:06:36;;;;;;;;;;;;;;;10.00;46.10;97210.31;4216627;28;5683;-68
2022/03/10 15:08:59;;;;;;;;;;;;;;;10.11;45.87;97201.16;4215534;28;5682;-70
2022/03/10 15:11:01;;;;;;;;;;;;;;;10.06;45.97;97200.84;4216752;28;5663;-70
2022/03/10 15:13:03;;;;;;;;;;;;;;;10.01;45.67;97203.22;4216519;28;5778;-69
2022/03/10 15:15:06;;;;;;;;;;;;;;;10.07;45.41;97202.47;4217086;28;5756;-70
2022/03/10 15:17:07;;;;;;;;;;;;;;;10.09;45.50;97196.03;4217770;28;5672;-70
2022/03/10 15:19:12;;;;;;;;;;;;;;;10.01;45.93;97195.28;4214904;28;5750;-69
2022/03/10 15:21:14;;;;;;;;;;;;;;;10.04;45.59;97194.94;4215810;28;5698;-70
2022/03/10 15:23:17;;;;;;;;;;;;;;;10.07;45.85;97195.38;4216107;28;5833;-68
2022/03/10 15:25:19;;;;;;;;;;;;;;;10.12;46.34;97198.31;4215293;28;5878;-68
2022/03/10 15:27:21;;;;;;;;;;;;;;;10.13;46.49;97193.84;4216407;28;5698;-68
2022/03/10 15:29:25;;;;;;;;;;;;;;;10.14;46.23;97190.22;4216216;28;5774;-68
2022/03/10 15:31:26;;;;;;;;;;;;;;;10.19;46.64;97193.13;4216420;28;5679;-68
2022/03/10 15:33:30;;;;;;;;;;;;;;;10.21;45.96;97185.84;4216163;28;5837;-69
2022/03/10 15:35:32;;;;;;;;;;;;;;;10.28;46.10;97189.41;4215976;28;5842;-68
2022/03/10 15:37:34;;;;;;;;;;;;;;;10.25;45.85;97187.16;4215578;28;5679;-69
2022/03/10 15:39:35;;;;;;;;;;;;;;;10.19;46.07;97178.09;4216327;28;5668;-69
2022/03/10 15:41:41;;;;;;;;;;;;;;;10.19;45.32;97178.09;4216318;28;5664;-69
2022/03/10 15:43:43;;;;;;;;;;;;;;;10.12;45.40;97179.81;4215950;28;5875;-69
2022/03/10 15:45:45;;;;;;;;;;;;;;;10.20;45.97;97174.47;4213315;28;5663;-69
2022/03/10 15:47:49;;;;;;;;;;;;;;;10.29;46.06;97172.56;4213668;28;5524;-69
2022/03/10 15:49:51;;;;;;;;;;;;;;;10.36;46.15;97177.94;4212912;28;5739;-69